MSCR weather

La Carrera Airport
Jiquilisco, Usulutan, El Salvador

Public forecast

Using degrees Celsius for public forecast. Weather courtesy of forecast.io.

METAR (pilot weather report)

Closest report is El Papalon Airport, 24.0 nm (44.5 km) ENE. Retrieved 2019/04/19 21:50 UTC (33 minutes ago):

MSSM 192150Z 23007KT 9999 FEW037 34/25 Q//// A////

TAF (pilot weather forecast)

Forecast is more than 12 hours old.

Closest forecast is Monse├▒or ├ôscar Arnulfo Romero International Airport, 32.0 nm (59.2 km) WNW. Retrieved 2019/04/15 12:00 UTC (4 days ago):

TAF MSLP 150925Z 1512/1612 04006KT 9999 FEW070 TX35/1518Z TN23/1512Z FM151800 22008G18KT 9999 SCT043 FM160000 VRB03KT CAVOK FM160400 07003KT